If you wish to contribute or participate in the discussions about articles you are invited to join SKYbrary as a registered user

 Actions

Nancy-Ochey (BA 133) Air Base

From SKYbrary Wiki

LFSO
Airport
ICAO: LFSO
Summary
Name Nancy-Ochey (BA 133) Air Base
Region Europe
Territory France FR.gif
Location , Lorraine
Serving Nancy
Elevation 337.109 m
1,106 ft
1,106 ft337.109 m
Type medium airport
Coordinates 48° 34' 59.00" N, 5° 57' 18.00" E
Runways
Designator Length Width Surface ROPS
2/20 2401 m7,877.297 ft
45 m147.638 ft
CON /


METAR
Observation LFSO 231100Z AUTO 24008KT 9999 SCT014/// BKN019/// BKN031/// ///TCU 15/13 Q1017 TEMPO 3000 -SHRA BKN007 OVC010
Station Nancy / Ochey
Date/Time 23 September 2019 11:00:00
Wind direction 240°
Wind speed 08 kts
Lowest cloud amount scattered clouds
Temperature 15°C
Dew point 13°C
Humidity 87%
QNH 1017 hPa
Weather condition n/a